sensor_id;sensor_type;location;lat;lon;timestamp;P1;durP1;ratioP1;P2;durP2;ratioP2
26858;SDS011;14429;48.346;16.338;2022-12-18T00:02:08;5.20;;;2.90;;
26858;SDS011;14429;48.346;16.338;2022-12-18T00:04:33;5.50;;;2.53;;
26858;SDS011;14429;48.346;16.338;2022-12-18T00:07:00;4.25;;;2.35;;
26858;SDS011;14429;48.346;16.338;2022-12-18T00:09:25;6.68;;;3.65;;
26858;SDS011;14429;48.346;16.338;2022-12-18T00:11:51;5.70;;;3.15;;
26858;SDS011;14429;48.346;16.338;2022-12-18T00:14:16;2.85;;;2.03;;
26858;SDS011;14429;48.346;16.338;2022-12-18T00:16:43;5.78;;;2.50;;
26858;SDS011;14429;48.346;16.338;2022-12-18T00:19:09;4.03;;;2.40;;
26858;SDS011;14429;48.346;16.338;2022-12-18T00:21:35;4.97;;;2.88;;
26858;SDS011;14429;48.346;16.338;2022-12-18T00:24:02;3.58;;;2.30;;
26858;SDS011;14429;48.346;16.338;2022-12-18T00:26:28;5.20;;;3.28;;
26858;SDS011;14429;48.346;16.338;2022-12-18T00:28:55;5.15;;;2.80;;
26858;SDS011;14429;48.346;16.338;2022-12-18T00:31:24;4.07;;;2.33;;
26858;SDS011;14429;48.346;16.338;2022-12-18T00:33:50;4.93;;;3.28;;
26858;SDS011;14429;48.346;16.338;2022-12-18T00:36:16;4.07;;;2.60;;
26858;SDS011;14429;48.346;16.338;2022-12-18T00:38:43;5.50;;;3.08;;
26858;SDS011;14429;48.346;16.338;2022-12-18T00:41:11;6.35;;;2.65;;
26858;SDS011;14429;48.346;16.338;2022-12-18T00:43:39;5.82;;;2.75;;
26858;SDS011;14429;48.346;16.338;2022-12-18T00:46:05;5.70;;;2.92;;
26858;SDS011;14429;48.346;16.338;2022-12-18T00:48:31;4.10;;;2.42;;
26858;SDS011;14429;48.346;16.338;2022-12-18T00:50:56;4.45;;;2.58;;
26858;SDS011;14429;48.346;16.338;2022-12-18T00:53:22;4.93;;;2.80;;
26858;SDS011;14429;48.346;16.338;2022-12-18T00:55:48;6.95;;;2.92;;
26858;SDS011;14429;48.346;16.338;2022-12-18T00:58:15;5.45;;;2.85;;
26858;SDS011;14429;48.346;16.338;2022-12-18T01:00:42;7.10;;;3.22;;
26858;SDS011;14429;48.346;16.338;2022-12-18T01:03:07;5.13;;;3.03;;
26858;SDS011;14429;48.346;16.338;2022-12-18T01:05:34;5.70;;;2.30;;
26858;SDS011;14429;48.346;16.338;2022-12-18T01:08:04;4.03;;;2.47;;
26858;SDS011;14429;48.346;16.338;2022-12-18T01:10:29;6.57;;;2.75;;
26858;SDS011;14429;48.346;16.338;2022-12-18T01:12:54;6.72;;;2.85;;
26858;SDS011;14429;48.346;16.338;2022-12-18T01:15:22;4.93;;;2.78;;
26858;SDS011;14429;48.346;16.338;2022-12-18T01:17:47;5.57;;;2.38;;
26858;SDS011;14429;48.346;16.338;2022-12-18T01:20:12;6.35;;;2.90;;
26858;SDS011;14429;48.346;16.338;2022-12-18T01:22:38;5.40;;;2.72;;
26858;SDS011;14429;48.346;16.338;2022-12-18T01:25:04;3.72;;;2.60;;
26858;SDS011;14429;48.346;16.338;2022-12-18T01:27:30;5.47;;;3.03;;
26858;SDS011;14429;48.346;16.338;2022-12-18T01:29:55;6.47;;;2.95;;
26858;SDS011;14429;48.346;16.338;2022-12-18T01:32:22;5.15;;;2.35;;
26858;SDS011;14429;48.346;16.338;2022-12-18T01:34:48;5.72;;;3.15;;
26858;SDS011;14429;48.346;16.338;2022-12-18T01:37:13;5.70;;;2.67;;
26858;SDS011;14429;48.346;16.338;2022-12-18T01:39:38;5.90;;;2.53;;
26858;SDS011;14429;48.346;16.338;2022-12-18T01:42:05;5.05;;;2.97;;
26858;SDS011;14429;48.346;16.338;2022-12-18T01:47:48;3.70;;;2.30;;
26858;SDS011;14429;48.346;16.338;2022-12-18T01:50:17;4.30;;;2.45;;
26858;SDS011;14429;48.346;16.338;2022-12-18T01:52:46;2.60;;;2.05;;
26858;SDS011;14429;48.346;16.338;2022-12-18T01:55:14;4.05;;;2.47;;
26858;SDS011;14429;48.346;16.338;2022-12-18T01:57:41;4.95;;;2.70;;
26858;SDS011;14429;48.346;16.338;2022-12-18T02:00:09;4.43;;;2.63;;
26858;SDS011;14429;48.346;16.338;2022-12-18T02:02:37;3.75;;;2.28;;
26858;SDS011;14429;48.346;16.338;2022-12-18T02:05:05;6.25;;;2.55;;
26858;SDS011;14429;48.346;16.338;2022-12-18T02:07:35;4.22;;;2.33;;
26858;SDS011;14429;48.346;16.338;2022-12-18T02:10:17;3.92;;;2.10;;
26858;SDS011;14429;48.346;16.338;2022-12-18T02:12:48;7.95;;;2.53;;
26858;SDS011;14429;48.346;16.338;2022-12-18T02:15:24;5.72;;;3.33;;
26858;SDS011;14429;48.346;16.338;2022-12-18T02:17:57;5.93;;;2.83;;
26858;SDS011;14429;48.346;16.338;2022-12-18T02:20:31;6.80;;;2.70;;
26858;SDS011;14429;48.346;16.338;2022-12-18T02:23:04;5.28;;;2.70;;
26858;SDS011;14429;48.346;16.338;2022-12-18T02:25:44;3.55;;;2.50;;
26858;SDS011;14429;48.346;16.338;2022-12-18T02:28:40;4.00;;;2.45;;
26858;SDS011;14429;48.346;16.338;2022-12-18T02:31:11;5.18;;;2.63;;
26858;SDS011;14429;48.346;16.338;2022-12-18T02:33:41;6.30;;;2.17;;
26858;SDS011;14429;48.346;16.338;2022-12-18T02:36:09;4.80;;;2.78;;
26858;SDS011;14429;48.346;16.338;2022-12-18T02:38:37;4.07;;;2.60;;
26858;SDS011;14429;48.346;16.338;2022-12-18T02:41:04;5.28;;;2.55;;
26858;SDS011;14429;48.346;16.338;2022-12-18T02:43:31;4.90;;;2.80;;
26858;SDS011;14429;48.346;16.338;2022-12-18T02:45:58;4.15;;;2.28;;
26858;SDS011;14429;48.346;16.338;2022-12-18T02:48:27;3.63;;;2.38;;
26858;SDS011;14429;48.346;16.338;2022-12-18T02:50:57;6.43;;;2.75;;
26858;SDS011;14429;48.346;16.338;2022-12-18T02:53:30;5.80;;;2.30;;
26858;SDS011;14429;48.346;16.338;2022-12-18T02:56:02;4.57;;;2.45;;
26858;SDS011;14429;48.346;16.338;2022-12-18T02:58:34;4.07;;;2.67;;
26858;SDS011;14429;48.346;16.338;2022-12-18T03:01:11;3.15;;;2.05;;
26858;SDS011;14429;48.346;16.338;2022-12-18T03:03:42;3.33;;;2.20;;
26858;SDS011;14429;48.346;16.338;2022-12-18T03:06:14;5.28;;;2.70;;
26858;SDS011;14429;48.346;16.338;2022-12-18T03:08:46;5.45;;;2.63;;
26858;SDS011;14429;48.346;16.338;2022-12-18T03:11:15;4.68;;;2.38;;
26858;SDS011;14429;48.346;16.338;2022-12-18T03:13:42;6.35;;;3.03;;
26858;SDS011;14429;48.346;16.338;2022-12-18T03:16:14;6.03;;;2.95;;
26858;SDS011;14429;48.346;16.338;2022-12-18T03:18:45;4.72;;;2.70;;
26858;SDS011;14429;48.346;16.338;2022-12-18T03:21:15;8.15;;;3.08;;
26858;SDS011;14429;48.346;16.338;2022-12-18T03:23:44;3.08;;;1.98;;
26858;SDS011;14429;48.346;16.338;2022-12-18T03:26:14;4.32;;;2.42;;
26858;SDS011;14429;48.346;16.338;2022-12-18T03:28:44;5.45;;;2.85;;
26858;SDS011;14429;48.346;16.338;2022-12-18T03:31:16;4.65;;;2.70;;
26858;SDS011;14429;48.346;16.338;2022-12-18T03:33:43;5.07;;;2.53;;
26858;SDS011;14429;48.346;16.338;2022-12-18T03:36:15;5.38;;;2.65;;
26858;SDS011;14429;48.346;16.338;2022-12-18T03:38:41;5.03;;;2.25;;
26858;SDS011;14429;48.346;16.338;2022-12-18T03:41:09;3.63;;;2.35;;
26858;SDS011;14429;48.346;16.338;2022-12-18T03:43:43;4.72;;;2.55;;
26858;SDS011;14429;48.346;16.338;2022-12-18T03:46:20;4.90;;;2.72;;
26858;SDS011;14429;48.346;16.338;2022-12-18T03:48:52;5.72;;;2.85;;
26858;SDS011;14429;48.346;16.338;2022-12-18T03:51:25;5.05;;;2.60;;
26858;SDS011;14429;48.346;16.338;2022-12-18T03:53:57;4.78;;;2.95;;
26858;SDS011;14429;48.346;16.338;2022-12-18T03:56:25;4.68;;;2.95;;
26858;SDS011;14429;48.346;16.338;2022-12-18T03:58:53;6.10;;;2.60;;
26858;SDS011;14429;48.346;16.338;2022-12-18T04:01:23;4.60;;;2.45;;
26858;SDS011;14429;48.346;16.338;2022-12-18T04:03:55;5.13;;;2.67;;
26858;SDS011;14429;48.346;16.338;2022-12-18T04:06:24;4.45;;;2.35;;
26858;SDS011;14429;48.346;16.338;2022-12-18T04:08:50;6.10;;;2.53;;
26858;SDS011;14429;48.346;16.338;2022-12-18T04:11:15;4.75;;;2.70;;
26858;SDS011;14429;48.346;16.338;2022-12-18T04:13:41;4.63;;;2.20;;
26858;SDS011;14429;48.346;16.338;2022-12-18T04:16:07;5.05;;;2.58;;
26858;SDS011;14429;48.346;16.338;2022-12-18T04:18:35;4.43;;;2.40;;
26858;SDS011;14429;48.346;16.338;2022-12-18T04:21:00;4.65;;;2.65;;
26858;SDS011;14429;48.346;16.338;2022-12-18T04:23:26;4.82;;;2.75;;
26858;SDS011;14429;48.346;16.338;2022-12-18T04:25:51;4.05;;;2.28;;
26858;SDS011;14429;48.346;16.338;2022-12-18T04:28:17;6.95;;;2.95;;
26858;SDS011;14429;48.346;16.338;2022-12-18T04:30:43;5.35;;;2.75;;
26858;SDS011;14429;48.346;16.338;2022-12-18T04:33:08;5.32;;;2.50;;
26858;SDS011;14429;48.346;16.338;2022-12-18T04:35:35;4.85;;;2.78;;
26858;SDS011;14429;48.346;16.338;2022-12-18T04:38:01;6.15;;;2.58;;
26858;SDS011;14429;48.346;16.338;2022-12-18T04:40:26;5.32;;;2.95;;
26858;SDS011;14429;48.346;16.338;2022-12-18T04:42:51;6.72;;;3.13;;
26858;SDS011;14429;48.346;16.338;2022-12-18T04:45:17;4.30;;;2.45;;
26858;SDS011;14429;48.346;16.338;2022-12-18T04:47:42;5.10;;;3.53;;
26858;SDS011;14429;48.346;16.338;2022-12-18T04:50:08;4.95;;;2.30;;
26858;SDS011;14429;48.346;16.338;2022-12-18T04:52:35;6.95;;;2.75;;
26858;SDS011;14429;48.346;16.338;2022-12-18T04:55:00;4.85;;;2.85;;
26858;SDS011;14429;48.346;16.338;2022-12-18T04:57:26;8.05;;;3.40;;
26858;SDS011;14429;48.346;16.338;2022-12-18T04:59:51;5.10;;;2.67;;
26858;SDS011;14429;48.346;16.338;2022-12-18T05:02:17;5.95;;;3.03;;
26858;SDS011;14429;48.346;16.338;2022-12-18T05:04:42;4.88;;;3.20;;
26858;SDS011;14429;48.346;16.338;2022-12-18T05:07:07;5.15;;;2.28;;
26858;SDS011;14429;48.346;16.338;2022-12-18T05:09:34;4.65;;;2.60;;
26858;SDS011;14429;48.346;16.338;2022-12-18T05:12:01;6.00;;;3.00;;
26858;SDS011;14429;48.346;16.338;2022-12-18T05:14:26;3.67;;;2.53;;
26858;SDS011;14429;48.346;16.338;2022-12-18T05:16:52;3.85;;;2.47;;
26858;SDS011;14429;48.346;16.338;2022-12-18T05:19:17;3.30;;;2.13;;
26858;SDS011;14429;48.346;16.338;2022-12-18T05:21:42;5.10;;;2.85;;
26858;SDS011;14429;48.346;16.338;2022-12-18T05:24:08;6.43;;;2.65;;
26858;SDS011;14429;48.346;16.338;2022-12-18T05:26:35;4.90;;;2.55;;
26858;SDS011;14429;48.346;16.338;2022-12-18T05:29:00;3.53;;;2.60;;
26858;SDS011;14429;48.346;16.338;2022-12-18T05:31:25;4.85;;;2.90;;
26858;SDS011;14429;48.346;16.338;2022-12-18T05:33:51;4.88;;;3.17;;
26858;SDS011;14429;48.346;16.338;2022-12-18T05:36:16;6.75;;;3.13;;
26858;SDS011;14429;48.346;16.338;2022-12-18T05:38:42;5.88;;;2.90;;
26858;SDS011;14429;48.346;16.338;2022-12-18T05:41:07;5.43;;;2.83;;
26858;SDS011;14429;48.346;16.338;2022-12-18T05:43:35;4.32;;;2.80;;
26858;SDS011;14429;48.346;16.338;2022-12-18T05:46:05;6.53;;;3.08;;
26858;SDS011;14429;48.346;16.338;2022-12-18T05:48:31;7.13;;;2.97;;
26858;SDS011;14429;48.346;16.338;2022-12-18T05:51:02;6.93;;;2.67;;
26858;SDS011;14429;48.346;16.338;2022-12-18T05:53:28;5.68;;;2.83;;
26858;SDS011;14429;48.346;16.338;2022-12-18T05:55:54;6.72;;;3.20;;
26858;SDS011;14429;48.346;16.338;2022-12-18T05:58:19;6.13;;;3.00;;
26858;SDS011;14429;48.346;16.338;2022-12-18T06:00:46;4.93;;;2.90;;
26858;SDS011;14429;48.346;16.338;2022-12-18T06:03:12;6.75;;;3.22;;
26858;SDS011;14429;48.346;16.338;2022-12-18T06:05:39;7.13;;;3.03;;
26858;SDS011;14429;48.346;16.338;2022-12-18T06:08:06;7.05;;;3.83;;
26858;SDS011;14429;48.346;16.338;2022-12-18T06:10:32;6.10;;;3.20;;
26858;SDS011;14429;48.346;16.338;2022-12-18T06:12:57;5.60;;;2.83;;
26858;SDS011;14429;48.346;16.338;2022-12-18T06:15:23;5.78;;;3.75;;
26858;SDS011;14429;48.346;16.338;2022-12-18T06:17:49;5.50;;;3.03;;
26858;SDS011;14429;48.346;16.338;2022-12-18T06:20:15;6.82;;;2.63;;
26858;SDS011;14429;48.346;16.338;2022-12-18T06:22:40;8.07;;;3.63;;
26858;SDS011;14429;48.346;16.338;2022-12-18T06:25:06;7.03;;;3.13;;
26858;SDS011;14429;48.346;16.338;2022-12-18T06:27:32;6.63;;;3.10;;
26858;SDS011;14429;48.346;16.338;2022-12-18T06:29:58;5.47;;;2.78;;
26858;SDS011;14429;48.346;16.338;2022-12-18T06:32:23;5.35;;;3.03;;
26858;SDS011;14429;48.346;16.338;2022-12-18T06:34:50;5.47;;;3.08;;
26858;SDS011;14429;48.346;16.338;2022-12-18T06:37:15;5.60;;;2.95;;
26858;SDS011;14429;48.346;16.338;2022-12-18T06:39:41;7.03;;;3.63;;
26858;SDS011;14429;48.346;16.338;2022-12-18T06:42:06;8.35;;;3.83;;
26858;SDS011;14429;48.346;16.338;2022-12-18T06:44:32;6.63;;;3.85;;
26858;SDS011;14429;48.346;16.338;2022-12-18T06:46:57;5.63;;;3.08;;
26858;SDS011;14429;48.346;16.338;2022-12-18T06:49:22;7.60;;;3.20;;
26858;SDS011;14429;48.346;16.338;2022-12-18T06:51:49;5.78;;;3.60;;
26858;SDS011;14429;48.346;16.338;2022-12-18T06:54:15;5.35;;;3.08;;
26858;SDS011;14429;48.346;16.338;2022-12-18T06:56:40;6.03;;;3.45;;
26858;SDS011;14429;48.346;16.338;2022-12-18T06:59:05;6.07;;;3.03;;
26858;SDS011;14429;48.346;16.338;2022-12-18T07:01:31;6.20;;;3.28;;
26858;SDS011;14429;48.346;16.338;2022-12-18T07:03:56;7.32;;;3.90;;
26858;SDS011;14429;48.346;16.338;2022-12-18T07:06:23;5.90;;;3.30;;
26858;SDS011;14429;48.346;16.338;2022-12-18T07:08:52;6.47;;;3.38;;
26858;SDS011;14429;48.346;16.338;2022-12-18T07:11:19;8.50;;;3.40;;
26858;SDS011;14429;48.346;16.338;2022-12-18T07:13:44;7.72;;;3.83;;
26858;SDS011;14429;48.346;16.338;2022-12-18T07:16:11;8.50;;;4.38;;
26858;SDS011;14429;48.346;16.338;2022-12-18T07:18:38;7.22;;;3.72;;
26858;SDS011;14429;48.346;16.338;2022-12-18T07:21:03;6.63;;;3.70;;
26858;SDS011;14429;48.346;16.338;2022-12-18T07:23:29;6.55;;;3.40;;
26858;SDS011;14429;48.346;16.338;2022-12-18T07:26:02;5.82;;;2.92;;
26858;SDS011;14429;48.346;16.338;2022-12-18T07:28:28;8.38;;;3.60;;
26858;SDS011;14429;48.346;16.338;2022-12-18T07:30:54;6.15;;;3.30;;
26858;SDS011;14429;48.346;16.338;2022-12-18T07:33:19;6.90;;;3.20;;
26858;SDS011;14429;48.346;16.338;2022-12-18T07:35:44;6.55;;;3.78;;
26858;SDS011;14429;48.346;16.338;2022-12-18T07:38:10;8.95;;;4.05;;
26858;SDS011;14429;48.346;16.338;2022-12-18T07:40:35;7.00;;;3.65;;
26858;SDS011;14429;48.346;16.338;2022-12-18T07:43:02;6.45;;;3.72;;
26858;SDS011;14429;48.346;16.338;2022-12-18T07:45:31;6.95;;;3.72;;
26858;SDS011;14429;48.346;16.338;2022-12-18T07:47:56;8.18;;;3.70;;
26858;SDS011;14429;48.346;16.338;2022-12-18T07:50:21;6.75;;;3.75;;
26858;SDS011;14429;48.346;16.338;2022-12-18T07:52:47;8.68;;;3.65;;
26858;SDS011;14429;48.346;16.338;2022-12-18T07:55:12;8.80;;;4.53;;
26858;SDS011;14429;48.346;16.338;2022-12-18T07:57:38;8.43;;;4.07;;
26858;SDS011;14429;48.346;16.338;2022-12-18T08:00:05;9.20;;;3.97;;
26858;SDS011;14429;48.346;16.338;2022-12-18T08:02:32;9.75;;;4.30;;
26858;SDS011;14429;48.346;16.338;2022-12-18T08:04:57;10.43;;;4.55;;
26858;SDS011;14429;48.346;16.338;2022-12-18T08:07:22;8.77;;;4.22;;
26858;SDS011;14429;48.346;16.338;2022-12-18T08:09:48;9.68;;;3.92;;
26858;SDS011;14429;48.346;16.338;2022-12-18T08:12:13;7.20;;;3.78;;
26858;SDS011;14429;48.346;16.338;2022-12-18T08:14:39;7.68;;;4.07;;
26858;SDS011;14429;48.346;16.338;2022-12-18T08:17:05;7.95;;;4.18;;
26858;SDS011;14429;48.346;16.338;2022-12-18T08:19:31;8.98;;;4.47;;
26858;SDS011;14429;48.346;16.338;2022-12-18T08:21:56;8.45;;;4.13;;
26858;SDS011;14429;48.346;16.338;2022-12-18T08:24:22;8.32;;;4.28;;
26858;SDS011;14429;48.346;16.338;2022-12-18T08:26:47;10.95;;;4.20;;
26858;SDS011;14429;48.346;16.338;2022-12-18T08:29:13;8.45;;;3.95;;
26858;SDS011;14429;48.346;16.338;2022-12-18T08:31:38;7.07;;;3.92;;
26858;SDS011;14429;48.346;16.338;2022-12-18T08:34:05;10.13;;;3.67;;
26858;SDS011;14429;48.346;16.338;2022-12-18T08:36:30;7.35;;;4.00;;
26858;SDS011;14429;48.346;16.338;2022-12-18T08:38:56;8.18;;;4.75;;
26858;SDS011;14429;48.346;16.338;2022-12-18T08:41:21;9.20;;;4.53;;
26858;SDS011;14429;48.346;16.338;2022-12-18T08:43:47;7.75;;;3.95;;
26858;SDS011;14429;48.346;16.338;2022-12-18T08:46:15;10.10;;;4.78;;
26858;SDS011;14429;48.346;16.338;2022-12-18T08:48:41;8.98;;;4.50;;
26858;SDS011;14429;48.346;16.338;2022-12-18T08:51:08;10.85;;;4.75;;
26858;SDS011;14429;48.346;16.338;2022-12-18T08:53:33;7.75;;;4.30;;
26858;SDS011;14429;48.346;16.338;2022-12-18T08:55:59;6.15;;;3.45;;
26858;SDS011;14429;48.346;16.338;2022-12-18T08:58:24;6.45;;;3.75;;
26858;SDS011;14429;48.346;16.338;2022-12-18T09:00:49;8.27;;;4.57;;
26858;SDS011;14429;48.346;16.338;2022-12-18T09:03:15;8.45;;;4.43;;
26858;SDS011;14429;48.346;16.338;2022-12-18T09:05:42;8.20;;;4.22;;
26858;SDS011;14429;48.346;16.338;2022-12-18T09:08:09;7.25;;;3.75;;
26858;SDS011;14429;48.346;16.338;2022-12-18T09:10:40;6.72;;;4.45;;
26858;SDS011;14429;48.346;16.338;2022-12-18T09:13:06;6.88;;;4.00;;
26858;SDS011;14429;48.346;16.338;2022-12-18T09:15:32;8.23;;;4.82;;
26858;SDS011;14429;48.346;16.338;2022-12-18T09:17:57;7.63;;;3.75;;
26858;SDS011;14429;48.346;16.338;2022-12-18T09:20:23;7.18;;;3.45;;
26858;SDS011;14429;48.346;16.338;2022-12-18T09:22:48;9.20;;;4.72;;
26858;SDS011;14429;48.346;16.338;2022-12-18T09:25:15;10.55;;;4.60;;
26858;SDS011;14429;48.346;16.338;2022-12-18T09:27:40;10.23;;;4.30;;
26858;SDS011;14429;48.346;16.338;2022-12-18T09:30:06;7.55;;;4.13;;
26858;SDS011;14429;48.346;16.338;2022-12-18T09:32:32;24.45;;;11.82;;
26858;SDS011;14429;48.346;16.338;2022-12-18T09:34:58;8.88;;;4.82;;
26858;SDS011;14429;48.346;16.338;2022-12-18T09:37:23;9.82;;;4.45;;
26858;SDS011;14429;48.346;16.338;2022-12-18T09:39:48;7.20;;;4.40;;
26858;SDS011;14429;48.346;16.338;2022-12-18T09:42:17;12.20;;;4.68;;
26858;SDS011;14429;48.346;16.338;2022-12-18T09:44:47;8.63;;;3.83;;
26858;SDS011;14429;48.346;16.338;2022-12-18T09:47:16;8.27;;;4.38;;
26858;SDS011;14429;48.346;16.338;2022-12-18T09:49:44;11.20;;;4.72;;
26858;SDS011;14429;48.346;16.338;2022-12-18T09:52:15;7.90;;;4.32;;
26858;SDS011;14429;48.346;16.338;2022-12-18T09:54:45;8.75;;;5.10;;
26858;SDS011;14429;48.346;16.338;2022-12-18T09:57:17;10.77;;;4.57;;
26858;SDS011;14429;48.346;16.338;2022-12-18T09:59:46;11.65;;;4.63;;
26858;SDS011;14429;48.346;16.338;2022-12-18T10:02:19;8.00;;;4.43;;
26858;SDS011;14429;48.346;16.338;2022-12-18T10:04:48;8.00;;;4.15;;
26858;SDS011;14429;48.346;16.338;2022-12-18T10:07:25;10.90;;;4.32;;
26858;SDS011;14429;48.346;16.338;2022-12-18T10:09:58;7.53;;;4.35;;
26858;SDS011;14429;48.346;16.338;2022-12-18T10:12:30;11.38;;;4.57;;
26858;SDS011;14429;48.346;16.338;2022-12-18T10:17:33;11.77;;;5.05;;
26858;SDS011;14429;48.346;16.338;2022-12-18T10:20:09;9.38;;;4.25;;
26858;SDS011;14429;48.346;16.338;2022-12-18T10:22:41;7.40;;;4.10;;
26858;SDS011;14429;48.346;16.338;2022-12-18T10:25:16;9.75;;;4.63;;
26858;SDS011;14429;48.346;16.338;2022-12-18T10:27:47;7.55;;;4.28;;
26858;SDS011;14429;48.346;16.338;2022-12-18T10:30:17;15.88;;;6.63;;
26858;SDS011;14429;48.346;16.338;2022-12-18T10:32:44;9.23;;;4.60;;
26858;SDS011;14429;48.346;16.338;2022-12-18T10:35:11;11.98;;;4.78;;
26858;SDS011;14429;48.346;16.338;2022-12-18T10:40:27;25.83;;;7.28;;
26858;SDS011;14429;48.346;16.338;2022-12-18T10:43:04;21.40;;;10.43;;
26858;SDS011;14429;48.346;16.338;2022-12-18T10:45:30;11.85;;;5.03;;
26858;SDS011;14429;48.346;16.338;2022-12-18T10:47:55;14.95;;;5.15;;
26858;SDS011;14429;48.346;16.338;2022-12-18T10:50:23;14.38;;;7.53;;
26858;SDS011;14429;48.346;16.338;2022-12-18T10:52:57;11.45;;;4.95;;
26858;SDS011;14429;48.346;16.338;2022-12-18T10:55:24;23.23;;;7.68;;
26858;SDS011;14429;48.346;16.338;2022-12-18T10:57:56;13.43;;;4.88;;
26858;SDS011;14429;48.346;16.338;2022-12-18T11:00:41;10.82;;;4.82;;
26858;SDS011;14429;48.346;16.338;2022-12-18T11:03:07;11.65;;;5.43;;
26858;SDS011;14429;48.346;16.338;2022-12-18T11:06:01;11.30;;;5.50;;
26858;SDS011;14429;48.346;16.338;2022-12-18T11:08:28;13.23;;;5.53;;
26858;SDS011;14429;48.346;16.338;2022-12-18T11:10:53;9.23;;;4.53;;
26858;SDS011;14429;48.346;16.338;2022-12-18T11:13:20;8.98;;;5.63;;
26858;SDS011;14429;48.346;16.338;2022-12-18T11:15:47;18.35;;;7.63;;
26858;SDS011;14429;48.346;16.338;2022-12-18T11:18:17;25.90;;;9.85;;
26858;SDS011;14429;48.346;16.338;2022-12-18T11:20:49;23.02;;;9.95;;
26858;SDS011;14429;48.346;16.338;2022-12-18T11:23:16;11.00;;;5.35;;
26858;SDS011;14429;48.346;16.338;2022-12-18T11:25:50;10.02;;;4.88;;
26858;SDS011;14429;48.346;16.338;2022-12-18T11:28:26;11.67;;;5.40;;
26858;SDS011;14429;48.346;16.338;2022-12-18T11:31:08;8.20;;;4.45;;
26858;SDS011;14429;48.346;16.338;2022-12-18T11:33:37;20.10;;;6.85;;
26858;SDS011;14429;48.346;16.338;2022-12-18T11:36:04;13.77;;;4.28;;
26858;SDS011;14429;48.346;16.338;2022-12-18T11:38:35;11.00;;;4.28;;
26858;SDS011;14429;48.346;16.338;2022-12-18T11:41:05;12.75;;;6.60;;
26858;SDS011;14429;48.346;16.338;2022-12-18T11:43:41;10.68;;;4.13;;
26858;SDS011;14429;48.346;16.338;2022-12-18T11:46:10;25.13;;;9.55;;
26858;SDS011;14429;48.346;16.338;2022-12-18T11:48:40;20.77;;;8.50;;
26858;SDS011;14429;48.346;16.338;2022-12-18T11:51:11;25.05;;;9.23;;
26858;SDS011;14429;48.346;16.338;2022-12-18T11:53:42;7.07;;;4.47;;
26858;SDS011;14429;48.346;16.338;2022-12-18T11:56:25;26.80;;;11.73;;
26858;SDS011;14429;48.346;16.338;2022-12-18T11:58:57;22.15;;;8.68;;
26858;SDS011;14429;48.346;16.338;2022-12-18T12:01:34;29.38;;;12.13;;
26858;SDS011;14429;48.346;16.338;2022-12-18T12:04:13;33.83;;;13.07;;
26858;SDS011;14429;48.346;16.338;2022-12-18T12:06:52;28.33;;;11.80;;
26858;SDS011;14429;48.346;16.338;2022-12-18T12:09:30;19.05;;;8.40;;
26858;SDS011;14429;48.346;16.338;2022-12-18T12:12:06;27.95;;;11.23;;
26858;SDS011;14429;48.346;16.338;2022-12-18T12:14:45;19.33;;;8.18;;
26858;SDS011;14429;48.346;16.338;2022-12-18T12:17:22;8.25;;;4.35;;
26858;SDS011;14429;48.346;16.338;2022-12-18T12:19:56;25.73;;;10.30;;
26858;SDS011;14429;48.346;16.338;2022-12-18T12:22:33;25.83;;;11.57;;
26858;SDS011;14429;48.346;16.338;2022-12-18T12:25:08;11.45;;;4.95;;
26858;SDS011;14429;48.346;16.338;2022-12-18T12:27:45;12.63;;;5.82;;
26858;SDS011;14429;48.346;16.338;2022-12-18T12:30:24;31.90;;;12.10;;
26858;SDS011;14429;48.346;16.338;2022-12-18T12:33:00;21.88;;;8.98;;
26858;SDS011;14429;48.346;16.338;2022-12-18T12:35:37;11.90;;;5.55;;
26858;SDS011;14429;48.346;16.338;2022-12-18T12:38:12;12.48;;;5.45;;
26858;SDS011;14429;48.346;16.338;2022-12-18T12:40:42;28.15;;;9.65;;
26858;SDS011;14429;48.346;16.338;2022-12-18T12:43:16;17.98;;;6.88;;
26858;SDS011;14429;48.346;16.338;2022-12-18T12:45:50;22.27;;;8.68;;
26858;SDS011;14429;48.346;16.338;2022-12-18T12:48:20;14.82;;;6.75;;
26858;SDS011;14429;48.346;16.338;2022-12-18T12:50:56;11.95;;;4.68;;
26858;SDS011;14429;48.346;16.338;2022-12-18T12:53:25;22.08;;;9.38;;
26858;SDS011;14429;48.346;16.338;2022-12-18T12:55:55;20.85;;;7.93;;
26858;SDS011;14429;48.346;16.338;2022-12-18T12:58:24;28.70;;;11.00;;
26858;SDS011;14429;48.346;16.338;2022-12-18T13:01:00;28.95;;;11.52;;
26858;SDS011;14429;48.346;16.338;2022-12-18T13:03:35;30.27;;;9.90;;
26858;SDS011;14429;48.346;16.338;2022-12-18T13:06:08;15.32;;;7.28;;
26858;SDS011;14429;48.346;16.338;2022-12-18T13:08:52;22.70;;;10.18;;
26858;SDS011;14429;48.346;16.338;2022-12-18T13:11:28;23.08;;;8.45;;
26858;SDS011;14429;48.346;16.338;2022-12-18T13:13:56;17.60;;;8.10;;
26858;SDS011;14429;48.346;16.338;2022-12-18T13:16:23;12.85;;;7.28;;
26858;SDS011;14429;48.346;16.338;2022-12-18T13:18:50;27.80;;;11.15;;
26858;SDS011;14429;48.346;16.338;2022-12-18T13:21:19;25.58;;;10.35;;
26858;SDS011;14429;48.346;16.338;2022-12-18T13:23:48;25.95;;;11.43;;
26858;SDS011;14429;48.346;16.338;2022-12-18T13:26:29;15.80;;;6.97;;
26858;SDS011;14429;48.346;16.338;2022-12-18T13:28:57;29.20;;;12.13;;
26858;SDS011;14429;48.346;16.338;2022-12-18T13:34:25;19.05;;;9.48;;
26858;SDS011;14429;48.346;16.338;2022-12-18T13:36:53;18.05;;;8.80;;
26858;SDS011;14429;48.346;16.338;2022-12-18T13:39:24;21.67;;;8.88;;
26858;SDS011;14429;48.346;16.338;2022-12-18T13:44:54;29.33;;;10.30;;
26858;SDS011;14429;48.346;16.338;2022-12-18T13:47:26;18.77;;;8.73;;
26858;SDS011;14429;48.346;16.338;2022-12-18T13:49:56;24.77;;;11.52;;
26858;SDS011;14429;48.346;16.338;2022-12-18T13:52:23;24.27;;;9.63;;
26858;SDS011;14429;48.346;16.338;2022-12-18T13:54:51;24.70;;;9.23;;
26858;SDS011;14429;48.346;16.338;2022-12-18T13:57:25;31.33;;;13.60;;
26858;SDS011;14429;48.346;16.338;2022-12-18T13:59:52;20.67;;;8.63;;
26858;SDS011;14429;48.346;16.338;2022-12-18T14:02:19;34.75;;;13.18;;
26858;SDS011;14429;48.346;16.338;2022-12-18T14:04:48;27.85;;;12.05;;
26858;SDS011;14429;48.346;16.338;2022-12-18T14:07:15;26.52;;;9.27;;
26858;SDS011;14429;48.346;16.338;2022-12-18T14:09:44;19.27;;;8.55;;
26858;SDS011;14429;48.346;16.338;2022-12-18T14:12:14;16.50;;;7.28;;
26858;SDS011;14429;48.346;16.338;2022-12-18T14:14:42;17.67;;;7.25;;
26858;SDS011;14429;48.346;16.338;2022-12-18T14:17:10;19.65;;;8.40;;
26858;SDS011;14429;48.346;16.338;2022-12-18T14:19:36;24.17;;;11.38;;
26858;SDS011;14429;48.346;16.338;2022-12-18T14:22:09;22.33;;;10.43;;
26858;SDS011;14429;48.346;16.338;2022-12-18T14:24:39;38.65;;;15.00;;
26858;SDS011;14429;48.346;16.338;2022-12-18T14:27:12;20.10;;;8.25;;
26858;SDS011;14429;48.346;16.338;2022-12-18T14:29:44;33.08;;;13.55;;
26858;SDS011;14429;48.346;16.338;2022-12-18T14:32:10;18.33;;;7.07;;
26858;SDS011;14429;48.346;16.338;2022-12-18T14:34:37;28.80;;;10.80;;
26858;SDS011;14429;48.346;16.338;2022-12-18T14:37:02;37.13;;;13.10;;
26858;SDS011;14429;48.346;16.338;2022-12-18T14:39:29;24.45;;;10.70;;
26858;SDS011;14429;48.346;16.338;2022-12-18T14:41:55;23.35;;;9.68;;
26858;SDS011;14429;48.346;16.338;2022-12-18T14:44:20;20.83;;;7.53;;
26858;SDS011;14429;48.346;16.338;2022-12-18T14:46:46;17.65;;;7.32;;
26858;SDS011;14429;48.346;16.338;2022-12-18T14:49:17;17.42;;;7.03;;
26858;SDS011;14429;48.346;16.338;2022-12-18T14:51:47;30.23;;;11.90;;